sensor_id;sensor_type;location;lat;lon;timestamp;noise_LAeq;noise_LA_min;noise_LA_max;noise_LA01;noise_LA95
45109;Laerm;30447;48.742;8.972;2023-04-27T00:00:28;38.35;33.44;41.61;;
45109;Laerm;30447;48.742;8.972;2023-04-27T00:02:54;38.21;33.90;41.61;;
45109;Laerm;30447;48.742;8.972;2023-04-27T00:05:21;38.20;34.31;41.22;;
45109;Laerm;30447;48.742;8.972;2023-04-27T00:07:48;38.32;33.44;43.72;;
45109;Laerm;30447;48.742;8.972;2023-04-27T00:10:14;38.02;34.31;43.63;;
45109;Laerm;30447;48.742;8.972;2023-04-27T00:12:41;39.16;34.69;43.99;;
45109;Laerm;30447;48.742;8.972;2023-04-27T00:15:08;38.85;34.31;42.35;;
45109;Laerm;30447;48.742;8.972;2023-04-27T00:17:35;38.84;33.44;42.47;;
45109;Laerm;30447;48.742;8.972;2023-04-27T00:20:02;38.24;33.44;43.09;;
45109;Laerm;30447;48.742;8.972;2023-04-27T00:22:30;37.86;34.31;41.06;;
45109;Laerm;30447;48.742;8.972;2023-04-27T00:24:57;38.47;35.36;41.68;;
45109;Laerm;30447;48.742;8.972;2023-04-27T00:27:23;40.16;36.91;44.73;;
45109;Laerm;30447;48.742;8.972;2023-04-27T00:29:50;41.09;35.66;45.91;;
45109;Laerm;30447;48.742;8.972;2023-04-27T00:32:16;39.61;36.20;43.68;;
45109;Laerm;30447;48.742;8.972;2023-04-27T00:34:42;38.31;34.31;42.71;;
45109;Laerm;30447;48.742;8.972;2023-04-27T00:37:09;38.22;32.93;41.96;;
45109;Laerm;30447;48.742;8.972;2023-04-27T00:39:36;38.93;35.36;42.53;;
45109;Laerm;30447;48.742;8.972;2023-04-27T00:42:02;38.13;33.44;41.14;;
45109;Laerm;30447;48.742;8.972;2023-04-27T00:44:29;38.35;33.44;42.22;;
45109;Laerm;30447;48.742;8.972;2023-04-27T00:46:57;39.00;34.69;45.39;;
45109;Laerm;30447;48.742;8.972;2023-04-27T00:49:25;38.65;34.31;44.83;;
45109;Laerm;30447;48.742;8.972;2023-04-27T00:51:52;40.09;35.36;45.51;;
45109;Laerm;30447;48.742;8.972;2023-04-27T00:54:19;39.41;34.34;43.34;;
45109;Laerm;30447;48.742;8.972;2023-04-27T00:56:50;40.06;35.94;46.15;;
45109;Laerm;30447;48.742;8.972;2023-04-27T00:59:17;40.25;33.90;45.77;;
45109;Laerm;30447;48.742;8.972;2023-04-27T01:01:45;41.88;38.05;47.61;;
45109;Laerm;30447;48.742;8.972;2023-04-27T01:04:12;40.22;35.36;46.13;;
45109;Laerm;30447;48.742;8.972;2023-04-27T01:06:38;39.24;35.36;43.58;;
45109;Laerm;30447;48.742;8.972;2023-04-27T01:09:05;39.50;35.36;43.77;;
45109;Laerm;30447;48.742;8.972;2023-04-27T01:11:32;39.47;34.69;43.44;;
45109;Laerm;30447;48.742;8.972;2023-04-27T01:14:03;39.24;34.69;45.39;;
45109;Laerm;30447;48.742;8.972;2023-04-27T01:16:31;39.11;35.04;43.09;;
45109;Laerm;30447;48.742;8.972;2023-04-27T01:18:58;39.71;35.36;42.93;;
45109;Laerm;30447;48.742;8.972;2023-04-27T01:21:25;38.89;34.69;42.03;;
45109;Laerm;30447;48.742;8.972;2023-04-27T01:23:52;39.57;35.66;44.80;;
45109;Laerm;30447;48.742;8.972;2023-04-27T01:26:19;39.29;36.45;42.65;;
45109;Laerm;30447;48.742;8.972;2023-04-27T01:28:45;40.05;35.66;43.99;;
45109;Laerm;30447;48.742;8.972;2023-04-27T01:31:12;39.75;35.66;43.24;;
45109;Laerm;30447;48.742;8.972;2023-04-27T01:33:39;38.95;34.31;42.59;;
45109;Laerm;30447;48.742;8.972;2023-04-27T01:36:07;38.32;34.31;42.47;;
45109;Laerm;30447;48.742;8.972;2023-04-27T01:38:34;40.18;36.20;44.11;;
45109;Laerm;30447;48.742;8.972;2023-04-27T01:41:03;39.92;36.45;43.68;;
45109;Laerm;30447;48.742;8.972;2023-04-27T01:43:30;39.13;35.36;42.93;;
45109;Laerm;30447;48.742;8.972;2023-04-27T01:46:13;39.61;35.59;44.15;;
45109;Laerm;30447;48.742;8.972;2023-04-27T01:48:40;38.78;34.69;42.93;;
45109;Laerm;30447;48.742;8.972;2023-04-27T01:51:07;38.46;34.69;41.61;;
45109;Laerm;30447;48.742;8.972;2023-04-27T01:53:33;38.79;35.04;42.22;;
45109;Laerm;30447;48.742;8.972;2023-04-27T01:56:00;39.29;32.93;46.15;;
45109;Laerm;30447;48.742;8.972;2023-04-27T01:58:27;39.58;34.31;43.68;;
45109;Laerm;30447;48.742;8.972;2023-04-27T02:00:53;40.05;35.66;43.90;;
45109;Laerm;30447;48.742;8.972;2023-04-27T02:03:20;39.40;35.66;46.82;;
45109;Laerm;30447;48.742;8.972;2023-04-27T02:05:46;39.64;35.04;45.04;;
45109;Laerm;30447;48.742;8.972;2023-04-27T02:08:13;40.34;36.69;44.39;;
45109;Laerm;30447;48.742;8.972;2023-04-27T02:10:40;39.59;35.66;43.58;;
45109;Laerm;30447;48.742;8.972;2023-04-27T02:13:06;39.83;35.66;44.43;;
45109;Laerm;30447;48.742;8.972;2023-04-27T02:15:33;40.19;35.94;45.17;;
45109;Laerm;30447;48.742;8.972;2023-04-27T02:18:02;39.42;35.66;44.15;;
45109;Laerm;30447;48.742;8.972;2023-04-27T02:20:29;39.89;35.94;43.81;;
45109;Laerm;30447;48.742;8.972;2023-04-27T02:22:56;39.90;35.66;45.07;;
45109;Laerm;30447;48.742;8.972;2023-04-27T02:25:23;40.95;37.32;45.63;;
45109;Laerm;30447;48.742;8.972;2023-04-27T02:27:49;39.71;35.36;42.59;;
45109;Laerm;30447;48.742;8.972;2023-04-27T02:30:16;40.44;36.69;43.86;;
45109;Laerm;30447;48.742;8.972;2023-04-27T02:32:42;40.68;36.91;43.19;;
45109;Laerm;30447;48.742;8.972;2023-04-27T02:35:09;40.90;37.70;44.07;;
45109;Laerm;30447;48.742;8.972;2023-04-27T02:37:36;41.24;37.32;46.73;;
45109;Laerm;30447;48.742;8.972;2023-04-27T02:40:03;41.39;36.45;44.69;;
45109;Laerm;30447;48.742;8.972;2023-04-27T02:42:32;41.34;36.69;44.90;;
45109;Laerm;30447;48.742;8.972;2023-04-27T02:44:58;40.41;36.91;43.42;;
45109;Laerm;30447;48.742;8.972;2023-04-27T02:47:25;41.93;38.67;47.18;;
45109;Laerm;30447;48.742;8.972;2023-04-27T02:49:52;42.41;38.37;47.06;;
45109;Laerm;30447;48.742;8.972;2023-04-27T02:52:18;42.23;38.67;48.07;;
45109;Laerm;30447;48.742;8.972;2023-04-27T02:54:44;42.32;38.67;45.57;;
45109;Laerm;30447;48.742;8.972;2023-04-27T02:57:11;41.97;39.08;50.20;;
45109;Laerm;30447;48.742;8.972;2023-04-27T02:59:37;42.19;38.81;59.42;;
45109;Laerm;30447;48.742;8.972;2023-04-27T03:02:04;43.05;39.08;47.88;;
45109;Laerm;30447;48.742;8.972;2023-04-27T03:04:31;40.96;38.18;43.72;;
45109;Laerm;30447;48.742;8.972;2023-04-27T03:06:57;40.97;38.37;43.19;;
45109;Laerm;30447;48.742;8.972;2023-04-27T03:09:23;41.04;37.52;45.48;;
45109;Laerm;30447;48.742;8.972;2023-04-27T03:11:50;41.15;37.70;44.54;;
45109;Laerm;30447;48.742;8.972;2023-04-27T03:14:16;41.96;38.87;46.25;;
45109;Laerm;30447;48.742;8.972;2023-04-27T03:16:43;42.07;39.58;44.39;;
45109;Laerm;30447;48.742;8.972;2023-04-27T03:19:09;43.09;40.03;54.11;;
45109;Laerm;30447;48.742;8.972;2023-04-27T03:21:36;42.63;39.70;50.61;;
45109;Laerm;30447;48.742;8.972;2023-04-27T03:24:02;43.22;39.58;52.79;;
45109;Laerm;30447;48.742;8.972;2023-04-27T03:26:29;43.25;40.23;52.08;;
45109;Laerm;30447;48.742;8.972;2023-04-27T03:28:55;44.16;40.89;54.63;;
45109;Laerm;30447;48.742;8.972;2023-04-27T03:31:21;44.56;40.80;56.35;;
45109;Laerm;30447;48.742;8.972;2023-04-27T03:33:48;44.48;40.03;54.29;;
45109;Laerm;30447;48.742;8.972;2023-04-27T03:36:14;44.46;40.62;54.11;;
45109;Laerm;30447;48.742;8.972;2023-04-27T03:38:41;45.26;41.33;54.35;;
45109;Laerm;30447;48.742;8.972;2023-04-27T03:41:07;44.90;41.06;54.04;;
45109;Laerm;30447;48.742;8.972;2023-04-27T03:43:34;44.64;40.80;53.33;;
45109;Laerm;30447;48.742;8.972;2023-04-27T03:46:01;45.25;41.75;53.80;;
45109;Laerm;30447;48.742;8.972;2023-04-27T03:48:27;45.28;41.30;53.66;;
45109;Laerm;30447;48.742;8.972;2023-04-27T03:50:54;46.56;41.82;56.64;;
45109;Laerm;30447;48.742;8.972;2023-04-27T03:53:20;45.27;41.06;57.33;;
45109;Laerm;30447;48.742;8.972;2023-04-27T03:55:47;47.33;40.71;59.60;;
45109;Laerm;30447;48.742;8.972;2023-04-27T03:58:13;47.07;40.80;59.20;;
45109;Laerm;30447;48.742;8.972;2023-04-27T04:00:40;46.95;41.46;59.56;;
45109;Laerm;30447;48.742;8.972;2023-04-27T04:03:06;44.71;41.06;60.13;;
45109;Laerm;30447;48.742;8.972;2023-04-27T04:05:33;44.23;41.22;53.25;;
45109;Laerm;30447;48.742;8.972;2023-04-27T04:08:00;44.03;41.38;47.44;;
45109;Laerm;30447;48.742;8.972;2023-04-27T04:10:26;44.60;42.09;60.09;;
45109;Laerm;30447;48.742;8.972;2023-04-27T04:12:53;43.85;41.22;50.56;;
45109;Laerm;30447;48.742;8.972;2023-04-27T04:15:19;52.17;41.61;68.82;;
45109;Laerm;30447;48.742;8.972;2023-04-27T04:17:46;46.20;41.75;62.47;;
45109;Laerm;30447;48.742;8.972;2023-04-27T04:20:14;45.79;42.35;54.63;;
45109;Laerm;30447;48.742;8.972;2023-04-27T04:22:41;44.26;41.75;46.91;;
45109;Laerm;30447;48.742;8.972;2023-04-27T04:25:08;44.05;41.53;50.27;;
45109;Laerm;30447;48.742;8.972;2023-04-27T04:27:35;44.00;41.46;49.41;;
45109;Laerm;30447;48.742;8.972;2023-04-27T04:30:04;44.31;41.22;60.87;;
45109;Laerm;30447;48.742;8.972;2023-04-27T04:32:32;44.09;40.96;54.62;;
45109;Laerm;30447;48.742;8.972;2023-04-27T04:34:58;45.56;41.96;61.40;;
45109;Laerm;30447;48.742;8.972;2023-04-27T04:37:26;44.11;41.75;53.38;;
45109;Laerm;30447;48.742;8.972;2023-04-27T04:39:53;43.59;40.71;47.18;;
45109;Laerm;30447;48.742;8.972;2023-04-27T04:42:19;42.65;40.23;53.36;;
45109;Laerm;30447;48.742;8.972;2023-04-27T04:44:46;43.05;40.53;47.32;;
45109;Laerm;30447;48.742;8.972;2023-04-27T04:47:12;43.85;41.53;49.77;;
45109;Laerm;30447;48.742;8.972;2023-04-27T04:49:39;43.11;40.53;57.23;;
45109;Laerm;30447;48.742;8.972;2023-04-27T04:52:05;42.91;40.03;57.84;;
45109;Laerm;30447;48.742;8.972;2023-04-27T04:54:31;43.10;40.03;52.24;;
45109;Laerm;30447;48.742;8.972;2023-04-27T04:56:58;43.03;39.92;54.09;;
45109;Laerm;30447;48.742;8.972;2023-04-27T04:59:26;43.25;40.13;54.58;;
45109;Laerm;30447;48.742;8.972;2023-04-27T05:01:52;43.39;40.23;54.67;;
45109;Laerm;30447;48.742;8.972;2023-04-27T05:04:21;43.99;41.53;52.72;;
45109;Laerm;30447;48.742;8.972;2023-04-27T05:06:48;43.26;40.53;52.98;;
45109;Laerm;30447;48.742;8.972;2023-04-27T05:09:14;43.19;40.62;50.95;;
45109;Laerm;30447;48.742;8.972;2023-04-27T05:11:41;42.73;40.23;45.86;;
45109;Laerm;30447;48.742;8.972;2023-04-27T05:14:07;42.63;39.70;48.74;;
45109;Laerm;30447;48.742;8.972;2023-04-27T05:16:33;42.08;39.21;47.52;;
45109;Laerm;30447;48.742;8.972;2023-04-27T05:19:00;42.94;38.52;59.54;;
45109;Laerm;30447;48.742;8.972;2023-04-27T05:21:26;42.96;39.34;59.22;;
45109;Laerm;30447;48.742;8.972;2023-04-27T05:23:53;42.30;38.95;52.89;;
45109;Laerm;30447;48.742;8.972;2023-04-27T05:26:19;42.15;38.95;58.25;;
45109;Laerm;30447;48.742;8.972;2023-04-27T05:28:46;43.40;38.21;55.98;;
45109;Laerm;30447;48.742;8.972;2023-04-27T05:31:14;43.80;39.46;51.40;;
45109;Laerm;30447;48.742;8.972;2023-04-27T05:33:40;44.27;39.46;55.43;;
45109;Laerm;30447;48.742;8.972;2023-04-27T05:36:07;41.38;37.88;53.96;;
45109;Laerm;30447;48.742;8.972;2023-04-27T05:38:34;42.02;37.88;54.97;;
45109;Laerm;30447;48.742;8.972;2023-04-27T05:41:02;41.46;38.21;51.06;;
45109;Laerm;30447;48.742;8.972;2023-04-27T05:43:29;41.00;37.70;50.80;;
45109;Laerm;30447;48.742;8.972;2023-04-27T05:45:55;41.13;37.70;48.29;;
45109;Laerm;30447;48.742;8.972;2023-04-27T05:48:22;41.10;36.98;47.04;;
45109;Laerm;30447;48.742;8.972;2023-04-27T05:50:48;44.01;37.32;60.23;;
45109;Laerm;30447;48.742;8.972;2023-04-27T05:53:15;46.10;39.34;63.06;;
45109;Laerm;30447;48.742;8.972;2023-04-27T05:55:42;42.57;36.20;57.64;;
45109;Laerm;30447;48.742;8.972;2023-04-27T05:58:08;41.59;37.32;53.26;;
45109;Laerm;30447;48.742;8.972;2023-04-27T06:00:35;41.71;37.32;57.78;;
45109;Laerm;30447;48.742;8.972;2023-04-27T06:03:01;41.07;38.05;46.59;;
45109;Laerm;30447;48.742;8.972;2023-04-27T06:05:28;40.79;37.70;51.37;;
45109;Laerm;30447;48.742;8.972;2023-04-27T06:07:54;42.50;36.45;58.92;;
45109;Laerm;30447;48.742;8.972;2023-04-27T06:10:21;41.35;35.66;62.03;;
45109;Laerm;30447;48.742;8.972;2023-04-27T06:12:47;41.39;37.12;54.82;;
45109;Laerm;30447;48.742;8.972;2023-04-27T06:15:14;46.80;37.32;63.57;;
45109;Laerm;30447;48.742;8.972;2023-04-27T06:17:40;42.63;35.66;64.66;;
45109;Laerm;30447;48.742;8.972;2023-04-27T06:20:09;41.07;35.94;55.27;;
45109;Laerm;30447;48.742;8.972;2023-04-27T06:22:35;40.31;36.45;50.79;;
45109;Laerm;30447;48.742;8.972;2023-04-27T06:25:06;45.22;36.69;60.61;;
45109;Laerm;30447;48.742;8.972;2023-04-27T06:27:34;41.07;37.12;52.22;;
45109;Laerm;30447;48.742;8.972;2023-04-27T06:30:00;40.96;37.12;50.48;;
45109;Laerm;30447;48.742;8.972;2023-04-27T06:32:27;40.47;36.77;52.45;;
45109;Laerm;30447;48.742;8.972;2023-04-27T06:34:53;41.23;36.20;50.36;;
45109;Laerm;30447;48.742;8.972;2023-04-27T06:37:20;43.95;37.32;57.00;;
45109;Laerm;30447;48.742;8.972;2023-04-27T06:39:46;40.21;36.20;47.54;;
45109;Laerm;30447;48.742;8.972;2023-04-27T06:42:13;41.53;36.69;61.26;;
45109;Laerm;30447;48.742;8.972;2023-04-27T06:44:39;42.31;36.20;56.47;;
45109;Laerm;30447;48.742;8.972;2023-04-27T06:47:06;41.32;36.20;55.05;;
45109;Laerm;30447;48.742;8.972;2023-04-27T06:49:32;41.76;36.20;62.27;;
45109;Laerm;30447;48.742;8.972;2023-04-27T06:52:01;40.59;36.20;61.00;;
45109;Laerm;30447;48.742;8.972;2023-04-27T06:54:28;39.69;35.94;54.49;;
45109;Laerm;30447;48.742;8.972;2023-04-27T06:56:54;39.10;35.04;52.22;;
45109;Laerm;30447;48.742;8.972;2023-04-27T06:59:20;39.39;35.04;51.80;;
45109;Laerm;30447;48.742;8.972;2023-04-27T07:01:47;39.19;34.69;42.79;;
45109;Laerm;30447;48.742;8.972;2023-04-27T07:04:13;41.27;35.04;59.83;;
45109;Laerm;30447;48.742;8.972;2023-04-27T07:06:40;39.89;35.04;51.38;;
45109;Laerm;30447;48.742;8.972;2023-04-27T07:09:06;39.40;35.04;54.88;;
45109;Laerm;30447;48.742;8.972;2023-04-27T07:11:33;39.43;34.69;53.32;;
45109;Laerm;30447;48.742;8.972;2023-04-27T07:13:59;44.64;35.94;68.05;;
45109;Laerm;30447;48.742;8.972;2023-04-27T07:16:26;40.33;34.69;59.49;;
45109;Laerm;30447;48.742;8.972;2023-04-27T07:18:52;40.69;33.90;59.56;;
45109;Laerm;30447;48.742;8.972;2023-04-27T07:21:19;39.13;35.04;54.50;;
45109;Laerm;30447;48.742;8.972;2023-04-27T07:23:45;39.41;33.90;50.02;;
45109;Laerm;30447;48.742;8.972;2023-04-27T07:26:12;40.47;34.31;57.22;;
45109;Laerm;30447;48.742;8.972;2023-04-27T07:28:38;40.05;35.04;56.92;;
45109;Laerm;30447;48.742;8.972;2023-04-27T07:31:05;41.52;35.04;60.52;;
45109;Laerm;30447;48.742;8.972;2023-04-27T07:33:33;41.68;35.36;58.67;;
45109;Laerm;30447;48.742;8.972;2023-04-27T07:36:00;40.33;34.69;46.97;;
45109;Laerm;30447;48.742;8.972;2023-04-27T07:38:27;41.78;35.04;53.11;;
45109;Laerm;30447;48.742;8.972;2023-04-27T07:40:59;41.67;35.01;53.94;;
45109;Laerm;30447;48.742;8.972;2023-04-27T07:43:27;41.46;35.66;53.37;;
45109;Laerm;30447;48.742;8.972;2023-04-27T07:45:53;39.47;35.36;48.36;;
45109;Laerm;30447;48.742;8.972;2023-04-27T07:48:20;39.38;35.36;48.69;;
45109;Laerm;30447;48.742;8.972;2023-04-27T07:50:47;39.62;35.36;47.22;;
45109;Laerm;30447;48.742;8.972;2023-04-27T07:53:14;43.79;35.36;61.54;;
45109;Laerm;30447;48.742;8.972;2023-04-27T07:55:41;39.15;34.31;53.87;;
45109;Laerm;30447;48.742;8.972;2023-04-27T07:58:09;39.85;34.69;51.52;;
45109;Laerm;30447;48.742;8.972;2023-04-27T08:00:37;40.47;35.66;51.35;;
45109;Laerm;30447;48.742;8.972;2023-04-27T08:03:03;39.82;35.66;55.63;;
45109;Laerm;30447;48.742;8.972;2023-04-27T08:05:29;39.43;35.66;53.70;;
45109;Laerm;30447;48.742;8.972;2023-04-27T08:07:56;41.35;35.94;56.33;;
45109;Laerm;30447;48.742;8.972;2023-04-27T08:10:22;40.92;35.66;54.92;;
45109;Laerm;30447;48.742;8.972;2023-04-27T08:12:49;39.54;35.36;53.82;;
45109;Laerm;30447;48.742;8.972;2023-04-27T08:15:16;39.90;35.36;51.91;;
45109;Laerm;30447;48.742;8.972;2023-04-27T08:17:42;41.14;36.20;54.78;;
45109;Laerm;30447;48.742;8.972;2023-04-27T08:20:09;43.20;37.32;56.82;;
45109;Laerm;30447;48.742;8.972;2023-04-27T08:22:37;40.85;35.66;54.48;;
45109;Laerm;30447;48.742;8.972;2023-04-27T08:25:04;41.57;37.12;49.21;;
45109;Laerm;30447;48.742;8.972;2023-04-27T08:27:32;39.75;35.04;49.97;;
45109;Laerm;30447;48.742;8.972;2023-04-27T08:29:58;39.36;35.04;45.51;;
45109;Laerm;30447;48.742;8.972;2023-04-27T08:32:26;44.08;35.36;68.53;;
45109;Laerm;30447;48.742;8.972;2023-04-27T08:34:53;40.26;35.66;60.46;;
45109;Laerm;30447;48.742;8.972;2023-04-27T08:37:19;46.01;36.45;67.02;;
45109;Laerm;30447;48.742;8.972;2023-04-27T08:39:47;40.42;36.45;50.68;;
45109;Laerm;30447;48.742;8.972;2023-04-27T08:42:13;40.22;34.69;53.46;;
45109;Laerm;30447;48.742;8.972;2023-04-27T08:44:40;40.27;35.04;53.15;;
45109;Laerm;30447;48.742;8.972;2023-04-27T08:47:08;43.02;36.69;60.50;;
45109;Laerm;30447;48.742;8.972;2023-04-27T08:49:35;40.90;35.94;57.31;;
45109;Laerm;30447;48.742;8.972;2023-04-27T08:52:09;39.99;35.04;54.38;;
45109;Laerm;30447;48.742;8.972;2023-04-27T08:54:37;46.30;35.94;75.24;;
45109;Laerm;30447;48.742;8.972;2023-04-27T08:57:11;41.99;34.69;52.50;;
45109;Laerm;30447;48.742;8.972;2023-04-27T08:59:39;39.94;36.20;48.34;;
45109;Laerm;30447;48.742;8.972;2023-04-27T09:02:17;40.25;35.86;54.67;;
45109;Laerm;30447;48.742;8.972;2023-04-27T09:04:44;40.13;36.20;54.71;;
45109;Laerm;30447;48.742;8.972;2023-04-27T09:07:11;40.96;36.45;59.05;;
45109;Laerm;30447;48.742;8.972;2023-04-27T09:09:38;41.04;35.36;52.84;;
45109;Laerm;30447;48.742;8.972;2023-04-27T09:12:18;41.54;36.91;63.70;;
45109;Laerm;30447;48.742;8.972;2023-04-27T09:15:06;44.34;36.69;59.64;;
45109;Laerm;30447;48.742;8.972;2023-04-27T09:17:33;47.03;41.11;56.93;;
45109;Laerm;30447;48.742;8.972;2023-04-27T09:20:08;45.99;39.34;53.90;;
45109;Laerm;30447;48.742;8.972;2023-04-27T09:22:46;40.48;36.45;51.18;;
45109;Laerm;30447;48.742;8.972;2023-04-27T09:25:30;42.60;37.70;56.94;;
45109;Laerm;30447;48.742;8.972;2023-04-27T09:27:59;47.58;40.89;59.00;;
45109;Laerm;30447;48.742;8.972;2023-04-27T09:30:27;42.85;38.05;60.28;;
45109;Laerm;30447;48.742;8.972;2023-04-27T09:33:00;41.80;38.05;54.38;;
45109;Laerm;30447;48.742;8.972;2023-04-27T09:35:29;41.96;36.20;55.52;;
45109;Laerm;30447;48.742;8.972;2023-04-27T09:37:57;40.35;35.66;60.79;;
45109;Laerm;30447;48.742;8.972;2023-04-27T09:40:26;41.55;35.66;46.73;;
45109;Laerm;30447;48.742;8.972;2023-04-27T09:42:56;42.97;37.12;53.41;;
45109;Laerm;30447;48.742;8.972;2023-04-27T09:45:24;40.72;36.69;49.90;;
45109;Laerm;30447;48.742;8.972;2023-04-27T09:47:51;48.75;37.70;67.77;;
45109;Laerm;30447;48.742;8.972;2023-04-27T09:50:18;43.62;35.66;64.54;;
45109;Laerm;30447;48.742;8.972;2023-04-27T09:52:45;41.67;34.69;52.23;;
45109;Laerm;30447;48.742;8.972;2023-04-27T09:55:20;42.95;36.20;59.32;;
45109;Laerm;30447;48.742;8.972;2023-04-27T09:58:11;44.09;35.66;61.28;;
45109;Laerm;30447;48.742;8.972;2023-04-27T10:00:59;40.57;34.69;50.11;;
45109;Laerm;30447;48.742;8.972;2023-04-27T10:04:04;42.89;35.94;60.01;;
45109;Laerm;30447;48.742;8.972;2023-04-27T10:09:19;39.45;35.36;47.86;;
45109;Laerm;30447;48.742;8.972;2023-04-27T10:11:50;39.65;35.36;46.05;;
45109;Laerm;30447;48.742;8.972;2023-04-27T10:14:19;39.82;35.66;50.81;;
45109;Laerm;30447;48.742;8.972;2023-04-27T10:16:57;42.53;35.36;55.44;;
45109;Laerm;30447;48.742;8.972;2023-04-27T10:19:24;40.81;36.45;52.37;;
45109;Laerm;30447;48.742;8.972;2023-04-27T10:21:59;41.29;36.91;55.62;;
45109;Laerm;30447;48.742;8.972;2023-04-27T10:24:36;41.36;35.86;54.06;;
45109;Laerm;30447;48.742;8.972;2023-04-27T10:27:05;44.50;35.36;60.97;;
45109;Laerm;30447;48.742;8.972;2023-04-27T10:29:43;48.28;34.69;68.73;;
45109;Laerm;30447;48.742;8.972;2023-04-27T10:32:24;44.43;36.20;61.97;;
45109;Laerm;30447;48.742;8.972;2023-04-27T10:35:02;44.47;37.12;61.10;;
45109;Laerm;30447;48.742;8.972;2023-04-27T10:37:41;44.08;37.52;72.22;;
45109;Laerm;30447;48.742;8.972;2023-04-27T10:40:10;43.50;38.67;61.27;;
45109;Laerm;30447;48.742;8.972;2023-04-27T10:42:40;44.01;39.08;63.16;;
45109;Laerm;30447;48.742;8.972;2023-04-27T10:45:07;42.71;38.81;58.59;;
45109;Laerm;30447;48.742;8.972;2023-04-27T10:47:39;43.03;39.08;56.89;;
45109;Laerm;30447;48.742;8.972;2023-04-27T10:50:11;42.04;38.52;57.23;;
45109;Laerm;30447;48.742;8.972;2023-04-27T10:52:42;43.16;38.81;62.31;;
45109;Laerm;30447;48.742;8.972;2023-04-27T10:55:17;43.47;39.08;60.02;;
45109;Laerm;30447;48.742;8.972;2023-04-27T10:57:48;42.60;39.08;55.84;;
45109;Laerm;30447;48.742;8.972;2023-04-27T11:00:23;45.06;40.13;68.90;;
45109;Laerm;30447;48.742;8.972;2023-04-27T11:02:52;43.97;38.67;68.66;;
45109;Laerm;30447;48.742;8.972;2023-04-27T11:05:23;42.73;37.52;54.25;;
45109;Laerm;30447;48.742;8.972;2023-04-27T11:07:50;41.63;38.05;57.20;;
45109;Laerm;30447;48.742;8.972;2023-04-27T11:10:18;40.19;36.45;50.38;;
45109;Laerm;30447;48.742;8.972;2023-04-27T11:12:45;40.01;35.66;54.80;;
45109;Laerm;30447;48.742;8.972;2023-04-27T11:15:12;40.14;36.20;44.23;;
45109;Laerm;30447;48.742;8.972;2023-04-27T11:17:39;40.88;36.91;52.09;;
45109;Laerm;30447;48.742;8.972;2023-04-27T11:20:07;41.00;35.94;52.92;;
45109;Laerm;30447;48.742;8.972;2023-04-27T11:22:42;42.31;35.94;69.04;;
45109;Laerm;30447;48.742;8.972;2023-04-27T11:25:10;39.63;35.36;50.53;;
45109;Laerm;30447;48.742;8.972;2023-04-27T11:27:38;42.44;36.69;58.13;;
45109;Laerm;30447;48.742;8.972;2023-04-27T11:30:16;46.78;37.12;62.08;;
45109;Laerm;30447;48.742;8.972;2023-04-27T11:32:43;39.86;36.20;47.14;;
45109;Laerm;30447;48.742;8.972;2023-04-27T11:35:10;43.01;38.21;48.66;;
45109;Laerm;30447;48.742;8.972;2023-04-27T11:37:36;41.12;36.91;49.46;;
45109;Laerm;30447;48.742;8.972;2023-04-27T11:40:03;42.38;36.69;62.56;;
45109;Laerm;30447;48.742;8.972;2023-04-27T11:42:30;40.36;36.20;52.86;;
45109;Laerm;30447;48.742;8.972;2023-04-27T11:45:01;40.61;37.12;55.20;;
45109;Laerm;30447;48.742;8.972;2023-04-27T11:47:30;41.25;36.91;54.07;;
45109;Laerm;30447;48.742;8.972;2023-04-27T11:49:59;42.24;36.91;62.16;;
45109;Laerm;30447;48.742;8.972;2023-04-27T11:52:31;41.51;36.91;59.42;;
45109;Laerm;30447;48.742;8.972;2023-04-27T11:54:59;41.56;37.52;49.91;;
45109;Laerm;30447;48.742;8.972;2023-04-27T11:57:28;40.38;36.69;48.32;;
45109;Laerm;30447;48.742;8.972;2023-04-27T11:59:56;42.43;38.52;53.78;;
45109;Laerm;30447;48.742;8.972;2023-04-27T12:02:27;43.21;38.37;60.23;;
45109;Laerm;30447;48.742;8.972;2023-04-27T12:04:54;43.90;41.06;51.73;;
45109;Laerm;30447;48.742;8.972;2023-04-27T12:07:20;43.71;40.80;56.12;;
45109;Laerm;30447;48.742;8.972;2023-04-27T12:09:46;43.98;41.89;47.95;;
45109;Laerm;30447;48.742;8.972;2023-04-27T12:12:13;49.31;38.67;58.95;;
45109;Laerm;30447;48.742;8.972;2023-04-27T12:14:42;40.35;37.52;52.52;;
45109;Laerm;30447;48.742;8.972;2023-04-27T12:17:08;40.39;37.32;54.59;;
45109;Laerm;30447;48.742;8.972;2023-04-27T12:19:34;40.56;37.32;49.75;;
45109;Laerm;30447;48.742;8.972;2023-04-27T12:22:02;40.27;36.91;51.01;;
45109;Laerm;30447;48.742;8.972;2023-04-27T12:24:29;40.91;36.91;52.01;;
45109;Laerm;30447;48.742;8.972;2023-04-27T12:26:56;42.69;37.32;49.52;;
45109;Laerm;30447;48.742;8.972;2023-04-27T12:29:23;44.85;41.22;60.22;;
45109;Laerm;30447;48.742;8.972;2023-04-27T12:31:50;44.66;40.53;59.86;;
45109;Laerm;30447;48.742;8.972;2023-04-27T12:34:17;45.89;41.14;60.62;;
45109;Laerm;30447;48.742;8.972;2023-04-27T12:36:44;45.85;41.06;58.35;;
45109;Laerm;30447;48.742;8.972;2023-04-27T12:39:18;43.77;36.91;58.95;;
45109;Laerm;30447;48.742;8.972;2023-04-27T12:41:48;41.39;36.69;55.95;;
45109;Laerm;30447;48.742;8.972;2023-04-27T12:44:17;41.05;35.94;59.19;;
45109;Laerm;30447;48.742;8.972;2023-04-27T12:46:44;43.93;37.70;58.05;;
45109;Laerm;30447;48.742;8.972;2023-04-27T12:49:11;40.79;37.12;52.74;;
45109;Laerm;30447;48.742;8.972;2023-04-27T12:51:37;44.31;38.05;55.42;;
45109;Laerm;30447;48.742;8.972;2023-04-27T12:54:06;43.59;40.71;50.54;;
45109;Laerm;30447;48.742;8.972;2023-04-27T12:56:32;44.30;41.30;52.45;;
45109;Laerm;30447;48.742;8.972;2023-04-27T12:58:59;48.52;40.33;63.44;;
45109;Laerm;30447;48.742;8.972;2023-04-27T13:01:26;48.35;37.12;66.21;;
45109;Laerm;30447;48.742;8.972;2023-04-27T13:04:01;42.51;37.12;58.60;;
45109;Laerm;30447;48.742;8.972;2023-04-27T13:06:29;48.12;37.32;73.43;;
45109;Laerm;30447;48.742;8.972;2023-04-27T13:09:00;44.42;36.20;65.48;;
45109;Laerm;30447;48.742;8.972;2023-04-27T13:11:27;52.83;35.66;68.74;;
45109;Laerm;30447;48.742;8.972;2023-04-27T13:13:54;45.83;36.69;60.37;;
45109;Laerm;30447;48.742;8.972;2023-04-27T13:16:21;44.01;35.66;55.19;;
45109;Laerm;30447;48.742;8.972;2023-04-27T13:18:50;44.75;41.46;48.13;;
45109;Laerm;30447;48.742;8.972;2023-04-27T13:21:18;44.01;35.66;47.95;;
45109;Laerm;30447;48.742;8.972;2023-04-27T13:23:44;39.81;36.20;53.89;;
45109;Laerm;30447;48.742;8.972;2023-04-27T13:26:13;41.42;36.45;49.46;;
45109;Laerm;30447;48.742;8.972;2023-04-27T13:28:40;40.82;37.32;56.28;;
45109;Laerm;30447;48.742;8.972;2023-04-27T13:31:06;39.51;35.36;52.80;;
45109;Laerm;30447;48.742;8.972;2023-04-27T13:33:40;44.90;36.45;64.49;;
45109;Laerm;30447;48.742;8.972;2023-04-27T13:36:09;41.11;36.45;49.89;;
45109;Laerm;30447;48.742;8.972;2023-04-27T13:38:36;45.72;36.20;58.48;;
45109;Laerm;30447;48.742;8.972;2023-04-27T13:41:03;41.50;36.20;57.73;;
45109;Laerm;30447;48.742;8.972;2023-04-27T13:43:30;41.17;37.32;53.70;;
45109;Laerm;30447;48.742;8.972;2023-04-27T13:46:00;47.02;34.69;70.07;;
45109;Laerm;30447;48.742;8.972;2023-04-27T13:48:28;45.34;36.20;66.11;;
45109;Laerm;30447;48.742;8.972;2023-04-27T13:50:55;43.18;36.45;61.36;;